Time;durP1;ratioP1;P1;durP2;ratioP2;P2;SDS_P1;SDS_P2;PMS_P1;PMS_P2;Temp;Humidity;BMP_temperature;BMP_pressure;BME280_temperature;BME280_humidity;BME280_pressure;Samples;Min_cycle;Max_cycle;Signal;HPM_P1;HPM_P2
2023/03/22 00:01:45;;;;;;;5.40;2.78;;;;;;;;;;5007621;28;20026;-87
2023/03/22 00:04:11;;;;;;;3.55;2.35;;;;;;;;;;5010175;28;20026;-85
2023/03/22 00:06:36;;;;;;;10.80;2.88;;;;;;;;;;5007944;28;20194;-86
2023/03/22 00:09:02;;;;;;;5.75;2.63;;;;;;;;;;5007316;28;20038;-87
2023/03/22 00:11:28;;;;;;;5.40;2.75;;;;;;;;;;5022418;28;20125;-86
2023/03/22 00:13:53;;;;;;;5.13;2.50;;;;;;;;;;5008556;28;20078;-85
2023/03/22 00:16:19;;;;;;;4.63;2.75;;;;;;;;;;5008288;28;20034;-86
2023/03/22 00:18:45;;;;;;;3.38;2.30;;;;;;;;;;5007649;28;20092;-87
2023/03/22 00:21:13;;;;;;;5.70;2.60;;;;;;;;;;5006967;28;20041;-86
2023/03/22 00:23:38;;;;;;;3.42;2.45;;;;;;;;;;5009287;28;20060;-86
2023/03/22 00:26:04;;;;;;;3.83;2.53;;;;;;;;;;5006831;28;20108;-85
2023/03/22 00:28:29;;;;;;;8.57;3.15;;;;;;;;;;5005361;28;20407;-86
2023/03/22 00:30:58;;;;;;;6.88;2.78;;;;;;;;;;5009259;28;20036;-86
2023/03/22 00:33:23;;;;;;;4.07;2.90;;;;;;;;;;5004439;28;20080;-85
2023/03/22 00:35:50;;;;;;;4.07;2.63;;;;;;;;;;5006502;28;20030;-86
2023/03/22 00:38:16;;;;;;;6.57;2.95;;;;;;;;;;5005633;28;20467;-85
2023/03/22 00:40:41;;;;;;;3.97;2.40;;;;;;;;;;5005743;28;20052;-85
2023/03/22 00:43:07;;;;;;;4.15;2.70;;;;;;;;;;5004661;28;20041;-84
2023/03/22 00:45:36;;;;;;;3.70;2.67;;;;;;;;;;5007599;28;20065;-86
2023/03/22 00:48:01;;;;;;;6.25;2.72;;;;;;;;;;5008249;28;20535;-84
2023/03/22 00:50:26;;;;;;;6.38;2.58;;;;;;;;;;5006073;28;20188;-85
2023/03/22 00:52:52;;;;;;;4.60;2.83;;;;;;;;;;5008080;28;20117;-84
2023/03/22 00:55:17;;;;;;;4.22;2.97;;;;;;;;;;5004291;28;20049;-86
2023/03/22 00:57:42;;;;;;;4.93;2.58;;;;;;;;;;5003969;28;20479;-83
2023/03/22 01:00:12;;;;;;;5.97;2.55;;;;;;;;;;5007602;28;20043;-82
2023/03/22 01:02:39;;;;;;;4.32;2.70;;;;;;;;;;5008206;28;20041;-87
2023/03/22 01:05:05;;;;;;;8.93;2.38;;;;;;;;;;5023538;28;20056;-89
2023/03/22 01:07:31;;;;;;;5.57;2.42;;;;;;;;;;5010345;28;20044;-85
2023/03/22 01:09:56;;;;;;;3.08;2.20;;;;;;;;;;5008129;28;20419;-87
2023/03/22 01:12:21;;;;;;;8.25;2.22;;;;;;;;;;5010425;28;20047;-86
2023/03/22 01:14:47;;;;;;;4.35;2.70;;;;;;;;;;5013497;28;20030;-85
2023/03/22 01:17:12;;;;;;;5.88;2.05;;;;;;;;;;5008390;28;20035;-87
2023/03/22 01:19:38;;;;;;;4.65;2.25;;;;;;;;;;5008538;28;20037;-85
2023/03/22 01:22:05;;;;;;;4.72;2.58;;;;;;;;;;5010640;28;20131;-85
2023/03/22 01:24:30;;;;;;;3.75;2.03;;;;;;;;;;5005089;28;20063;-85
2023/03/22 01:26:56;;;;;;;3.42;2.50;;;;;;;;;;5016127;28;20383;-86
2023/03/22 01:29:22;;;;;;;4.20;2.53;;;;;;;;;;5014777;28;21083;-86
2023/03/22 01:31:47;;;;;;;3.67;2.58;;;;;;;;;;5010379;28;20045;-85
2023/03/22 01:34:13;;;;;;;11.23;2.58;;;;;;;;;;5012477;28;20030;-85
2023/03/22 01:36:38;;;;;;;4.07;2.25;;;;;;;;;;5005479;28;20034;-85
2023/03/22 01:39:03;;;;;;;3.40;2.08;;;;;;;;;;5003858;28;20030;-86
2023/03/22 01:41:33;;;;;;;3.50;2.10;;;;;;;;;;5002058;28;20026;-84
2023/03/22 01:44:17;;;;;;;2.65;2.10;;;;;;;;;;5008640;28;20037;-84
2023/03/22 01:46:45;;;;;;;3.35;1.90;;;;;;;;;;5007420;28;20057;-89
2023/03/22 01:49:33;;;;;;;3.97;2.40;;;;;;;;;;5010764;28;20038;-88
2023/03/22 01:52:02;;;;;;;2.80;2.03;;;;;;;;;;5030524;28;21512;-85
2023/03/22 01:54:46;;;;;;;5.57;2.30;;;;;;;;;;4987362;28;20036;-85
2023/03/22 01:57:12;;;;;;;3.85;2.47;;;;;;;;;;5012940;28;20096;-86
2023/03/22 01:59:40;;;;;;;4.65;2.33;;;;;;;;;;5009497;28;20057;-89
2023/03/22 02:02:06;;;;;;;3.15;2.03;;;;;;;;;;5022220;28;20003;-88
2023/03/22 02:04:37;;;;;;;3.80;1.88;;;;;;;;;;5024438;28;20060;-88
2023/03/22 02:07:14;;;;;;;2.13;1.75;;;;;;;;;;5017739;28;20033;-86
2023/03/22 02:09:41;;;;;;;2.65;1.88;;;;;;;;;;5004184;28;20030;-86
2023/03/22 02:12:25;;;;;;;3.42;2.00;;;;;;;;;;5002944;28;20022;-86
2023/03/22 02:15:17;;;;;;;3.95;1.88;;;;;;;;;;5018375;28;20030;-87
2023/03/22 02:18:17;;;;;;;2.65;2.15;;;;;;;;;;4999084;28;20037;-85
2023/03/22 02:21:02;;;;;;;2.72;1.90;;;;;;;;;;4998240;28;20030;-86
2023/03/22 02:23:33;;;;;;;1.98;1.77;;;;;;;;;;4999504;28;21673;-86
2023/03/22 02:26:20;;;;;;;5.60;2.30;;;;;;;;;;5003125;28;20097;-86
2023/03/22 02:29:03;;;;;;;3.17;1.85;;;;;;;;;;5004165;28;20041;-85
2023/03/22 02:31:48;;;;;;;4.65;1.60;;;;;;;;;;5016870;28;20081;-86
2023/03/22 02:34:22;;;;;;;6.18;2.55;;;;;;;;;;5017029;28;20018;-84
2023/03/22 02:37:18;;;;;;;2.35;1.77;;;;;;;;;;5017675;28;20034;-86
2023/03/22 02:39:43;;;;;;;3.40;2.13;;;;;;;;;;5019079;28;20021;-86
2023/03/22 02:42:41;;;;;;;1.75;1.65;;;;;;;;;;5020142;28;20036;-87
2023/03/22 02:45:51;;;;;;;4.60;1.70;;;;;;;;;;5020157;28;20026;-86
2023/03/22 02:48:30;;;;;;;3.58;1.83;;;;;;;;;;5022555;28;20104;-84
2023/03/22 02:51:03;;;;;;;1.40;1.30;;;;;;;;;;5017328;28;20501;-85
2023/03/22 02:53:40;;;;;;;2.25;1.75;;;;;;;;;;5015166;28;20064;-85
2023/03/22 02:56:17;;;;;;;1.80;1.65;;;;;;;;;;5013119;28;20106;-85
2023/03/22 02:58:46;;;;;;;2.38;1.67;;;;;;;;;;5022792;28;20034;-85
2023/03/22 03:01:23;;;;;;;1.95;1.40;;;;;;;;;;5006224;28;20080;-85
2023/03/22 03:03:51;;;;;;;1.85;1.52;;;;;;;;;;5008001;28;21489;-85
2023/03/22 03:06:20;;;;;;;2.17;1.73;;;;;;;;;;5004464;28;20022;-84
2023/03/22 03:08:49;;;;;;;2.85;1.55;;;;;;;;;;5005193;28;20392;-86
2023/03/22 03:11:15;;;;;;;3.67;1.88;;;;;;;;;;4988695;28;20440;-87
2023/03/22 03:13:40;;;;;;;4.88;2.10;;;;;;;;;;5003821;28;20062;-88
2023/03/22 03:16:12;;;;;;;4.93;1.95;;;;;;;;;;5006622;28;20068;-85
2023/03/22 03:18:52;;;;;;;1.97;1.77;;;;;;;;;;5009699;28;20091;-85
2023/03/22 03:21:33;;;;;;;2.30;1.58;;;;;;;;;;5018350;28;20811;-86
2023/03/22 03:24:19;;;;;;;2.25;1.70;;;;;;;;;;5004503;28;20529;-84
2023/03/22 03:26:57;;;;;;;2.05;1.85;;;;;;;;;;5015750;28;20120;-85
2023/03/22 03:29:38;;;;;;;2.95;2.00;;;;;;;;;;5015206;28;20064;-83
2023/03/22 03:32:20;;;;;;;3.95;2.22;;;;;;;;;;5019546;28;20041;-84
2023/03/22 03:34:56;;;;;;;2.90;1.67;;;;;;;;;;5032741;28;20021;-87
2023/03/22 03:37:27;;;;;;;2.17;1.40;;;;;;;;;;5019406;28;20014;-84
2023/03/22 03:40:09;;;;;;;2.33;1.75;;;;;;;;;;5035637;28;20022;-86
2023/03/22 03:42:38;;;;;;;2.60;1.90;;;;;;;;;;5022303;28;21271;-85
2023/03/22 03:45:05;;;;;;;1.48;1.38;;;;;;;;;;5014306;28;20060;-85
2023/03/22 03:47:31;;;;;;;3.88;1.90;;;;;;;;;;5014126;28;20514;-85
2023/03/22 03:49:56;;;;;;;1.85;1.73;;;;;;;;;;5014210;28;20060;-87
2023/03/22 03:52:23;;;;;;;3.10;1.83;;;;;;;;;;5008952;28;20025;-86
2023/03/22 03:54:49;;;;;;;2.28;2.08;;;;;;;;;;5024684;28;20392;-87
2023/03/22 03:57:15;;;;;;;4.32;1.77;;;;;;;;;;5010545;28;21394;-86
2023/03/22 03:59:41;;;;;;;3.03;2.08;;;;;;;;;;5011550;28;20033;-86
2023/03/22 04:02:06;;;;;;;1.80;1.70;;;;;;;;;;5011952;28;20063;-86
2023/03/22 04:04:33;;;;;;;5.07;2.00;;;;;;;;;;5026481;28;20049;-84
2023/03/22 04:07:01;;;;;;;2.00;1.70;;;;;;;;;;5012298;28;20029;-87
2023/03/22 04:09:34;;;;;;;5.63;2.15;;;;;;;;;;5016192;28;20072;-86
2023/03/22 04:12:00;;;;;;;2.67;1.80;;;;;;;;;;5010986;28;20029;-84
2023/03/22 04:14:26;;;;;;;2.30;1.98;;;;;;;;;;5013638;28;20033;-84
2023/03/22 04:16:52;;;;;;;2.35;1.95;;;;;;;;;;5013729;28;20104;-85
2023/03/22 04:19:18;;;;;;;3.42;2.05;;;;;;;;;;5012942;28;20038;-86
2023/03/22 04:21:44;;;;;;;8.85;3.20;;;;;;;;;;5010787;28;21354;-86
2023/03/22 04:24:11;;;;;;;8.20;2.15;;;;;;;;;;5002299;28;20033;-87
2023/03/22 04:26:36;;;;;;;5.53;2.17;;;;;;;;;;5001271;28;20877;-86
2023/03/22 04:29:02;;;;;;;2.65;2.22;;;;;;;;;;5005221;28;20495;-87
2023/03/22 04:31:29;;;;;;;3.25;2.50;;;;;;;;;;5003594;28;20036;-85
2023/03/22 04:33:55;;;;;;;3.50;2.05;;;;;;;;;;5004820;28;20037;-86
2023/03/22 04:36:24;;;;;;;4.18;2.63;;;;;;;;;;5006863;28;20033;-88
2023/03/22 04:38:50;;;;;;;2.60;2.00;;;;;;;;;;5001256;28;20080;-87
2023/03/22 04:41:17;;;;;;;5.13;2.38;;;;;;;;;;5005562;28;20050;-87
2023/03/22 04:43:45;;;;;;;8.57;3.20;;;;;;;;;;5003286;28;20029;-88
2023/03/22 04:46:12;;;;;;;6.28;2.95;;;;;;;;;;5006441;28;20014;-87
2023/03/22 04:48:40;;;;;;;17.65;3.47;;;;;;;;;;5005820;28;21391;-87
2023/03/22 04:51:07;;;;;;;8.05;4.47;;;;;;;;;;5003164;28;20038;-86
2023/03/22 04:53:37;;;;;;;8.00;4.32;;;;;;;;;;5007659;28;20371;-86
2023/03/22 04:56:08;;;;;;;8.18;3.97;;;;;;;;;;5015430;23;20783;-83
2023/03/22 04:58:36;;;;;;;10.45;4.05;;;;;;;;;;5006149;28;20069;-85
2023/03/22 05:01:02;;;;;;;6.82;2.97;;;;;;;;;;5003341;28;20038;-86
2023/03/22 05:03:27;;;;;;;5.95;3.22;;;;;;;;;;5003468;28;20032;-87
2023/03/22 05:05:55;;;;;;;6.82;2.92;;;;;;;;;;5004665;28;21376;-83
2023/03/22 05:08:23;;;;;;;4.68;2.85;;;;;;;;;;4987133;28;20471;-85
2023/03/22 05:10:49;;;;;;;4.30;2.63;;;;;;;;;;4988151;28;20088;-85
2023/03/22 05:13:15;;;;;;;5.38;3.08;;;;;;;;;;4990529;28;20026;-84
2023/03/22 05:15:41;;;;;;;15.15;3.20;;;;;;;;;;5010084;28;20034;-87
2023/03/22 05:18:06;;;;;;;3.63;2.22;;;;;;;;;;4991569;28;20939;-84
2023/03/22 05:20:32;;;;;;;5.38;2.55;;;;;;;;;;4993824;28;20029;-86
2023/03/22 05:22:57;;;;;;;4.50;2.47;;;;;;;;;;4993345;28;21649;-86
2023/03/22 05:25:22;;;;;;;6.68;3.00;;;;;;;;;;4992924;28;21683;-87
2023/03/22 05:27:49;;;;;;;6.28;2.50;;;;;;;;;;5005088;28;20056;-83
2023/03/22 05:30:15;;;;;;;3.30;2.45;;;;;;;;;;5013841;28;20018;-87
2023/03/22 05:32:42;;;;;;;3.47;2.40;;;;;;;;;;5000087;28;20025;-87
2023/03/22 05:35:08;;;;;;;5.80;2.88;;;;;;;;;;4996580;28;20614;-87
2023/03/22 05:37:34;;;;;;;3.53;2.45;;;;;;;;;;4998333;28;20699;-87
2023/03/22 05:39:59;;;;;;;2.60;1.90;;;;;;;;;;5019612;28;20080;-87
2023/03/22 05:42:25;;;;;;;1.73;1.58;;;;;;;;;;5018625;28;20021;-85
2023/03/22 05:44:51;;;;;;;4.40;1.92;;;;;;;;;;5014669;28;20021;-86
2023/03/22 05:47:16;;;;;;;2.13;1.63;;;;;;;;;;5015237;28;20577;-84
2023/03/22 05:49:41;;;;;;;5.78;2.25;;;;;;;;;;4996502;28;20061;-84
2023/03/22 05:52:07;;;;;;;2.00;1.70;;;;;;;;;;5013466;28;20554;-85
2023/03/22 05:54:33;;;;;;;2.22;1.75;;;;;;;;;;4996942;28;20555;-85
2023/03/22 05:56:58;;;;;;;2.95;1.70;;;;;;;;;;5016469;28;20057;-83
2023/03/22 05:59:23;;;;;;;5.05;1.88;;;;;;;;;;5001872;28;20061;-84
2023/03/22 06:01:49;;;;;;;6.47;1.90;;;;;;;;;;5017235;28;20073;-85
2023/03/22 06:04:15;;;;;;;2.30;1.60;;;;;;;;;;4998426;28;20036;-85
2023/03/22 06:06:40;;;;;;;3.45;1.83;;;;;;;;;;4994760;28;20022;-84
2023/03/22 06:09:06;;;;;;;3.17;1.60;;;;;;;;;;5010417;28;20033;-87
2023/03/22 06:11:34;;;;;;;2.70;1.55;;;;;;;;;;4995461;28;20026;-83
2023/03/22 06:14:00;;;;;;;2.00;1.52;;;;;;;;;;5012550;28;20082;-83
2023/03/22 06:16:26;;;;;;;1.63;1.45;;;;;;;;;;4991988;28;20042;-84
2023/03/22 06:18:51;;;;;;;3.95;1.90;;;;;;;;;;5012153;28;20117;-85
2023/03/22 06:21:16;;;;;;;2.78;1.77;;;;;;;;;;5009884;28;20033;-85
2023/03/22 06:23:42;;;;;;;3.10;1.85;;;;;;;;;;5012043;28;20030;-84
2023/03/22 06:26:13;;;;;;;2.47;1.45;;;;;;;;;;5011174;28;20049;-86
2023/03/22 06:28:38;;;;;;;5.25;2.30;;;;;;;;;;5010698;28;20033;-83
2023/03/22 06:31:08;;;;;;;4.10;2.00;;;;;;;;;;5001440;28;20030;-85
2023/03/22 06:33:35;;;;;;;2.03;1.52;;;;;;;;;;5005691;28;20065;-84
2023/03/22 06:36:01;;;;;;;4.05;1.80;;;;;;;;;;4980794;28;20025;-82
2023/03/22 06:38:27;;;;;;;4.30;1.80;;;;;;;;;;5008929;28;20034;-85
2023/03/22 06:40:52;;;;;;;4.75;1.58;;;;;;;;;;5011764;28;20041;-85
2023/03/22 06:43:18;;;;;;;3.63;1.98;;;;;;;;;;5013689;28;20033;-86
2023/03/22 06:45:45;;;;;;;4.47;1.70;;;;;;;;;;4994812;28;20110;-85
2023/03/22 06:48:10;;;;;;;5.18;1.60;;;;;;;;;;5014940;28;20053;-84
2023/03/22 06:50:37;;;;;;;3.20;1.60;;;;;;;;;;5009323;28;20395;-86
2023/03/22 06:53:04;;;;;;;7.38;1.60;;;;;;;;;;5010498;28;20160;-85
2023/03/22 06:55:33;;;;;;;3.00;1.67;;;;;;;;;;5014400;28;20037;-85
2023/03/22 06:58:02;;;;;;;4.95;1.85;;;;;;;;;;5013972;28;20037;-85
2023/03/22 07:00:28;;;;;;;3.42;1.67;;;;;;;;;;5000705;28;20491;-84
2023/03/22 07:02:53;;;;;;;4.93;2.38;;;;;;;;;;4989352;28;20037;-86
2023/03/22 07:05:19;;;;;;;8.60;1.75;;;;;;;;;;5012119;28;20081;-86
2023/03/22 07:07:45;;;;;;;3.95;1.70;;;;;;;;;;5015756;28;20528;-80
2023/03/22 07:10:11;;;;;;;2.55;1.55;;;;;;;;;;5010998;28;20064;-83
2023/03/22 07:12:36;;;;;;;2.13;1.40;;;;;;;;;;5006564;28;20373;-86
2023/03/22 07:15:02;;;;;;;4.55;1.50;;;;;;;;;;5024184;28;20079;-86
2023/03/22 07:17:28;;;;;;;3.60;1.75;;;;;;;;;;5032570;28;20113;-85
2023/03/22 07:19:53;;;;;;;3.08;1.98;;;;;;;;;;5016701;28;20657;-85
2023/03/22 07:22:21;;;;;;;1.88;1.45;;;;;;;;;;5019074;28;20028;-86
2023/03/22 07:24:49;;;;;;;2.70;1.42;;;;;;;;;;5037573;28;20024;-86
2023/03/22 07:27:14;;;;;;;3.20;1.73;;;;;;;;;;5021262;28;20029;-86
2023/03/22 07:29:40;;;;;;;5.95;2.05;;;;;;;;;;5020212;28;20080;-84
2023/03/22 07:32:05;;;;;;;3.58;1.70;;;;;;;;;;5022617;28;20040;-85
2023/03/22 07:34:31;;;;;;;1.45;1.27;;;;;;;;;;5016908;28;20025;-85
2023/03/22 07:36:56;;;;;;;3.50;1.55;;;;;;;;;;4999333;28;20053;-84
2023/03/22 07:39:23;;;;;;;2.83;1.58;;;;;;;;;;4998846;28;20026;-83
2023/03/22 07:41:49;;;;;;;3.97;1.80;;;;;;;;;;4998971;28;20061;-84
2023/03/22 07:44:15;;;;;;;4.45;1.50;;;;;;;;;;5016319;28;20115;-85
2023/03/22 07:46:41;;;;;;;1.83;1.23;;;;;;;;;;5016784;28;20550;-84
2023/03/22 07:49:06;;;;;;;2.67;1.20;;;;;;;;;;4998525;28;20029;-85
2023/03/22 07:51:31;;;;;;;2.40;1.15;;;;;;;;;;5017254;28;20026;-83
2023/03/22 07:53:57;;;;;;;3.95;1.10;;;;;;;;;;5019040;28;20041;-82
2023/03/22 07:56:22;;;;;;;1.45;1.20;;;;;;;;;;5017304;28;20029;-84
2023/03/22 07:58:47;;;;;;;1.25;1.00;;;;;;;;;;5008874;28;20048;-83
2023/03/22 08:01:13;;;;;;;2.05;1.33;;;;;;;;;;5012150;28;20030;-84
2023/03/22 08:03:38;;;;;;;1.73;1.00;;;;;;;;;;5018840;28;20037;-84
2023/03/22 08:06:06;;;;;;;1.80;1.33;;;;;;;;;;5019380;28;21525;-85
2023/03/22 08:08:32;;;;;;;1.92;1.20;;;;;;;;;;5014804;28;20053;-85
2023/03/22 08:10:57;;;;;;;3.17;0.90;;;;;;;;;;5014779;28;20040;-83
2023/03/22 08:13:23;;;;;;;3.20;1.40;;;;;;;;;;5020498;28;20053;-85
2023/03/22 08:15:48;;;;;;;1.33;1.00;;;;;;;;;;5013205;28;20357;-85
2023/03/22 08:18:14;;;;;;;3.28;1.10;;;;;;;;;;5025897;28;20307;-82
2023/03/22 08:20:39;;;;;;;3.67;1.00;;;;;;;;;;5035202;28;20017;-84
2023/03/22 08:23:10;;;;;;;3.42;1.00;;;;;;;;;;5033766;28;20037;-82
2023/03/22 08:25:35;;;;;;;2.45;1.17;;;;;;;;;;5005262;28;20038;-83
2023/03/22 08:28:01;;;;;;;3.05;0.90;;;;;;;;;;5017788;28;20034;-85
2023/03/22 08:30:26;;;;;;;0.85;0.85;;;;;;;;;;5002204;28;20091;-86
2023/03/22 08:32:52;;;;;;;2.05;0.90;;;;;;;;;;5010187;28;20030;-85
2023/03/22 08:35:17;;;;;;;0.70;0.70;;;;;;;;;;4992378;28;20014;-86
2023/03/22 08:37:42;;;;;;;3.70;1.30;;;;;;;;;;4989850;28;20029;-85
2023/03/22 08:40:09;;;;;;;3.25;0.82;;;;;;;;;;5010620;28;20073;-86
2023/03/22 08:42:35;;;;;;;1.27;0.80;;;;;;;;;;5000055;28;20033;-85
2023/03/22 08:45:00;;;;;;;1.48;0.73;;;;;;;;;;4996898;28;20022;-85
2023/03/22 08:47:26;;;;;;;0.60;0.60;;;;;;;;;;4986748;28;20037;-86
2023/03/22 08:49:51;;;;;;;2.90;0.77;;;;;;;;;;5012088;28;20032;-85
2023/03/22 08:52:17;;;;;;;0.50;0.50;;;;;;;;;;5012644;28;20448;-85
2023/03/22 08:54:42;;;;;;;0.73;0.70;;;;;;;;;;5017066;28;20555;-85
2023/03/22 08:57:08;;;;;;;0.98;0.98;;;;;;;;;;5001839;28;20026;-86
2023/03/22 08:59:34;;;;;;;1.60;0.80;;;;;;;;;;5015629;28;20025;-85
2023/03/22 09:01:59;;;;;;;0.85;0.80;;;;;;;;;;5017051;28;20477;-85
2023/03/22 09:04:26;;;;;;;2.83;0.65;;;;;;;;;;5015176;28;20018;-86
2023/03/22 09:06:52;;;;;;;1.38;0.63;;;;;;;;;;5017362;28;20018;-85
2023/03/22 09:09:17;;;;;;;1.33;0.73;;;;;;;;;;4995996;28;20046;-85
2023/03/22 09:11:43;;;;;;;3.08;0.80;;;;;;;;;;5010425;28;20099;-86
2023/03/22 09:14:09;;;;;;;2.28;0.82;;;;;;;;;;5015644;28;20018;-85
2023/03/22 09:16:35;;;;;;;0.85;0.60;;;;;;;;;;5015690;28;20491;-85
2023/03/22 09:19:01;;;;;;;1.40;0.90;;;;;;;;;;5014991;28;20084;-84
2023/03/22 09:21:28;;;;;;;1.95;0.50;;;;;;;;;;5012328;28;20022;-84
2023/03/22 09:23:54;;;;;;;1.45;0.80;;;;;;;;;;5013596;28;20026;-86
2023/03/22 09:26:21;;;;;;;0.70;0.70;;;;;;;;;;5015396;28;20022;-86
2023/03/22 09:28:47;;;;;;;3.72;0.75;;;;;;;;;;5000325;28;20041;-84
2023/03/22 09:31:12;;;;;;;3.50;0.75;;;;;;;;;;5018381;28;20017;-85
2023/03/22 09:33:40;;;;;;;3.78;1.00;;;;;;;;;;5015940;28;20025;-85
2023/03/22 09:36:06;;;;;;;1.70;1.05;;;;;;;;;;5005497;28;20502;-85
2023/03/22 09:38:32;;;;;;;1.77;0.95;;;;;;;;;;5019080;28;20203;-85
2023/03/22 09:41:02;;;;;;;2.60;0.70;;;;;;;;;;5023650;28;20025;-86
2023/03/22 09:43:35;;;;;;;1.40;0.90;;;;;;;;;;5000178;28;20026;-82
2023/03/22 09:46:03;;;;;;;1.58;1.02;;;;;;;;;;5019124;28;20074;-86
2023/03/22 09:48:38;;;;;;;1.20;0.60;;;;;;;;;;5004308;28;20030;-86
2023/03/22 09:51:06;;;;;;;2.08;0.75;;;;;;;;;;5017306;28;20084;-85
2023/03/22 09:53:32;;;;;;;0.68;0.68;;;;;;;;;;5022952;28;20025;-85
2023/03/22 09:56:05;;;;;;;1.38;0.70;;;;;;;;;;5000163;28;20468;-83
2023/03/22 09:58:48;;;;;;;0.88;0.88;;;;;;;;;;5012374;28;20114;-84
2023/03/22 10:01:33;;;;;;;2.20;0.55;;;;;;;;;;5004476;28;20033;-84
2023/03/22 10:04:20;;;;;;;0.70;0.70;;;;;;;;;;5020081;28;20050;-82
2023/03/22 10:06:50;;;;;;;1.20;0.93;;;;;;;;;;5015072;28;20036;-84
2023/03/22 10:09:24;;;;;;;3.67;1.02;;;;;;;;;;5002124;28;20021;-82
2023/03/22 10:12:19;;;;;;;1.05;0.98;;;;;;;;;;5013049;28;20045;-83
2023/03/22 10:14:46;;;;;;;1.40;1.00;;;;;;;;;;5000639;28;20026;-83
2023/03/22 10:17:16;;;;;;;1.65;0.40;;;;;;;;;;5011960;28;20487;-83
2023/03/22 10:20:06;;;;;;;0.55;0.52;;;;;;;;;;5013186;28;20025;-83
2023/03/22 10:22:36;;;;;;;0.98;0.63;;;;;;;;;;5018496;28;20055;-82
2023/03/22 10:25:05;;;;;;;1.08;0.80;;;;;;;;;;5016701;28;20029;-83
2023/03/22 10:27:31;;;;;;;0.93;0.88;;;;;;;;;;4997274;28;20029;-84
2023/03/22 10:30:02;;;;;;;1.40;0.85;;;;;;;;;;5013306;28;20476;-84
2023/03/22 10:32:42;;;;;;;2.33;0.70;;;;;;;;;;5010624;28;20060;-83
2023/03/22 10:35:13;;;;;;;0.63;0.47;;;;;;;;;;4984436;28;20275;-83
2023/03/22 10:37:40;;;;;;;0.80;0.80;;;;;;;;;;5001097;28;20057;-84
2023/03/22 10:40:16;;;;;;;1.60;0.90;;;;;;;;;;4982233;28;20069;-83
2023/03/22 10:42:50;;;;;;;2.22;1.00;;;;;;;;;;5000925;28;20053;-84
2023/03/22 10:45:16;;;;;;;1.90;0.80;;;;;;;;;;4983175;28;20085;-84
2023/03/22 10:47:47;;;;;;;3.17;1.13;;;;;;;;;;4980422;28;20527;-84
2023/03/22 10:50:27;;;;;;;0.90;0.88;;;;;;;;;;4979021;28;20107;-83
2023/03/22 10:52:56;;;;;;;0.77;0.70;;;;;;;;;;5001294;28;20400;-83
2023/03/22 10:55:23;;;;;;;3.00;1.17;;;;;;;;;;5017484;28;20025;-84
2023/03/22 10:58:16;;;;;;;1.95;0.80;;;;;;;;;;4997472;28;20034;-83
2023/03/22 11:00:47;;;;;;;2.05;0.82;;;;;;;;;;5007866;28;20041;-85
2023/03/22 11:03:43;;;;;;;1.20;1.00;;;;;;;;;;4993269;28;20022;-83
2023/03/22 11:06:13;;;;;;;0.90;0.90;;;;;;;;;;5010095;28;20022;-84
2023/03/22 11:08:45;;;;;;;1.95;0.80;;;;;;;;;;4998700;28;20084;-82
2023/03/22 11:11:20;;;;;;;3.22;0.85;;;;;;;;;;4995536;28;20040;-84
2023/03/22 11:13:52;;;;;;;1.85;0.88;;;;;;;;;;5020651;28;20025;-83
2023/03/22 11:16:19;;;;;;;0.85;0.85;;;;;;;;;;5009663;28;20030;-84
2023/03/22 11:18:45;;;;;;;4.97;0.88;;;;;;;;;;5019834;28;20026;-84
2023/03/22 11:21:11;;;;;;;2.85;1.40;;;;;;;;;;5018602;28;20036;-82
2023/03/22 11:23:40;;;;;;;1.48;0.93;;;;;;;;;;4999235;28;20547;-83
2023/03/22 11:26:10;;;;;;;2.25;0.93;;;;;;;;;;4996264;28;20182;-83
2023/03/22 11:28:49;;;;;;;2.47;0.88;;;;;;;;;;5001370;28;20022;-83
2023/03/22 11:31:19;;;;;;;4.07;1.30;;;;;;;;;;4987415;28;20083;-83
2023/03/22 11:33:57;;;;;;;3.15;1.08;;;;;;;;;;4989928;28;20029;-83
2023/03/22 11:36:23;;;;;;;3.67;0.93;;;;;;;;;;4991105;28;20135;-85
2023/03/22 11:38:59;;;;;;;1.55;0.70;;;;;;;;;;5003943;28;20414;-85
2023/03/22 11:41:44;;;;;;;1.10;0.90;;;;;;;;;;5010397;28;20116;-83
2023/03/22 11:44:16;;;;;;;2.30;0.93;;;;;;;;;;5008229;28;20034;-84
2023/03/22 11:46:56;;;;;;;2.10;0.93;;;;;;;;;;5009204;28;20030;-83
2023/03/22 11:49:25;;;;;;;1.80;1.25;;;;;;;;;;5007679;28;20041;-85
2023/03/22 11:51:52;;;;;;;1.60;0.85;;;;;;;;;;5018774;28;20524;-85
2023/03/22 11:54:27;;;;;;;0.77;0.70;;;;;;;;;;5022080;28;20025;-84
2023/03/22 11:56:57;;;;;;;0.80;0.80;;;;;;;;;;5038678;28;20030;-85
2023/03/22 11:59:35;;;;;;;7.68;0.90;;;;;;;;;;5028111;28;20411;-84
2023/03/22 12:02:22;;;;;;;9.55;1.30;;;;;;;;;;4992696;28;20025;-84
2023/03/22 12:04:50;;;;;;;0.70;0.70;;;;;;;;;;5010975;28;20033;-85
2023/03/22 12:07:20;;;;;;;2.08;1.40;;;;;;;;;;5011832;28;20042;-85
2023/03/22 12:10:06;;;;;;;2.15;1.30;;;;;;;;;;5009980;28;20519;-86
2023/03/22 12:12:39;;;;;;;1.20;0.80;;;;;;;;;;5010189;28;20103;-85
2023/03/22 12:15:14;;;;;;;0.75;0.75;;;;;;;;;;5010415;28;20033;-84
2023/03/22 12:17:42;;;;;;;1.00;0.80;;;;;;;;;;4992593;28;20447;-83
2023/03/22 12:20:32;;;;;;;2.10;1.17;;;;;;;;;;5009119;28;20029;-87
2023/03/22 12:22:58;;;;;;;1.90;0.70;;;;;;;;;;5011556;28;20533;-84
2023/03/22 12:25:34;;;;;;;0.57;0.57;;;;;;;;;;5010947;28;20053;-84
2023/03/22 12:28:12;;;;;;;2.20;0.85;;;;;;;;;;5005954;28;20060;-86
2023/03/22 12:30:50;;;;;;;0.80;0.80;;;;;;;;;;5005477;28;21429;-85
2023/03/22 12:33:26;;;;;;;2.20;1.27;;;;;;;;;;5011831;28;20041;-88
2023/03/22 12:35:57;;;;;;;0.82;0.80;;;;;;;;;;5013335;28;20213;-84
2023/03/22 12:38:47;;;;;;;3.17;0.90;;;;;;;;;;5012217;28;20487;-86
2023/03/22 12:41:24;;;;;;;0.65;0.60;;;;;;;;;;5011167;28;20046;-88
2023/03/22 12:44:03;;;;;;;0.55;0.55;;;;;;;;;;5025730;28;20029;-82
2023/03/22 12:46:34;;;;;;;2.10;0.90;;;;;;;;;;5014255;28;20040;-84
2023/03/22 12:49:05;;;;;;;1.65;0.80;;;;;;;;;;5006707;28;20032;-86
2023/03/22 12:51:30;;;;;;;1.45;0.65;;;;;;;;;;5024698;28;20053;-83
2023/03/22 12:53:58;;;;;;;0.77;0.52;;;;;;;;;;5038463;28;20017;-85
2023/03/22 12:56:29;;;;;;;0.77;0.50;;;;;;;;;;5033096;28;20034;-84
2023/03/22 12:58:59;;;;;;;0.60;0.47;;;;;;;;;;5032732;28;20018;-83
2023/03/22 13:01:37;;;;;;;1.48;0.60;;;;;;;;;;5013073;28;20102;-84
2023/03/22 13:04:24;;;;;;;2.00;0.52;;;;;;;;;;5031244;28;20085;-82
2023/03/22 13:06:49;;;;;;;0.45;0.45;;;;;;;;;;5029794;28;20010;-84
2023/03/22 13:09:17;;;;;;;0.95;0.55;;;;;;;;;;5001495;28;20038;-87
2023/03/22 13:12:06;;;;;;;0.65;0.52;;;;;;;;;;5021898;28;20060;-88
2023/03/22 13:15:21;;;;;;;1.50;0.70;;;;;;;;;;4996573;28;20042;-86
2023/03/22 13:17:47;;;;;;;1.13;0.63;;;;;;;;;;5009724;28;20030;-86
2023/03/22 13:20:13;;;;;;;0.45;0.43;;;;;;;;;;4997666;28;20041;-86
2023/03/22 13:22:41;;;;;;;0.50;0.50;;;;;;;;;;5017219;28;20030;-86
2023/03/22 13:25:13;;;;;;;0.50;0.50;;;;;;;;;;4995049;28;20030;-87
2023/03/22 13:27:44;;;;;;;1.13;0.80;;;;;;;;;;5028167;28;20026;-85
2023/03/22 13:30:13;;;;;;;0.70;0.70;;;;;;;;;;5020225;28;20033;-87
2023/03/22 13:32:49;;;;;;;0.55;0.52;;;;;;;;;;5018185;28;20040;-88
2023/03/22 13:35:27;;;;;;;2.50;0.55;;;;;;;;;;5013498;28;20521;-85
2023/03/22 13:37:54;;;;;;;0.55;0.50;;;;;;;;;;5013926;28;20026;-83
2023/03/22 13:40:36;;;;;;;1.00;0.60;;;;;;;;;;4994557;28;20073;-85
2023/03/22 13:43:12;;;;;;;;;;;;;;;;;;5015230;28;20049;-86
2023/03/22 13:45:57;;;;;;;0.60;0.60;;;;;;;;;;4997360;28;19928;-84
2023/03/22 13:48:41;;;;;;;0.40;0.40;;;;;;;;;;5003777;28;20057;-85
2023/03/22 13:51:24;;;;;;;1.83;0.50;;;;;;;;;;5022148;28;20041;-87
2023/03/22 13:54:07;;;;;;;0.43;0.43;;;;;;;;;;5020886;28;20404;-84
2023/03/22 13:57:01;;;;;;;1.05;0.68;;;;;;;;;;5016518;28;20357;-84
2023/03/22 13:59:52;;;;;;;0.70;0.70;;;;;;;;;;5021821;28;20030;-85
2023/03/22 14:02:27;;;;;;;0.40;0.40;;;;;;;;;;4998779;28;20030;-86
2023/03/22 14:05:27;;;;;;;0.95;0.52;;;;;;;;;;5017692;28;20041;-83
2023/03/22 14:07:56;;;;;;;0.60;0.60;;;;;;;;;;5014914;28;20045;-85
2023/03/22 14:10:27;;;;;;;1.00;0.60;;;;;;;;;;5019949;28;20038;-85
2023/03/22 14:13:11;;;;;;;0.95;0.60;;;;;;;;;;5004712;28;20022;-87
2023/03/22 14:15:40;;;;;;;1.13;0.45;;;;;;;;;;5022567;28;20045;-86
2023/03/22 14:18:30;;;;;;;2.50;0.60;;;;;;;;;;5065822;23;20038;-84
2023/03/22 14:21:02;;;;;;;0.50;0.50;;;;;;;;;;5043787;28;20078;-84
2023/03/22 14:23:36;;;;;;;0.80;0.50;;;;;;;;;;5020509;28;20032;-84
2023/03/22 14:26:10;;;;;;;1.55;0.73;;;;;;;;;;5046596;28;20048;-85
2023/03/22 14:28:39;;;;;;;0.85;0.73;;;;;;;;;;5041583;28;20148;-84
2023/03/22 14:31:06;;;;;;;0.68;0.60;;;;;;;;;;5043309;28;20041;-84
2023/03/22 14:33:36;;;;;;;0.70;0.60;;;;;;;;;;5018154;28;20035;-86
2023/03/22 14:36:05;;;;;;;2.20;0.77;;;;;;;;;;5032177;28;20427;-85
2023/03/22 14:38:34;;;;;;;0.80;0.65;;;;;;;;;;5046912;28;20115;-87
2023/03/22 14:41:20;;;;;;;0.60;0.60;;;;;;;;;;5034672;28;20033;-86
2023/03/22 14:44:04;;;;;;;1.60;0.70;;;;;;;;;;5055506;28;20745;-86
2023/03/22 14:46:32;;;;;;;0.63;0.55;;;;;;;;;;5033038;28;20056;-86
2023/03/22 14:49:00;;;;;;;0.60;0.60;;;;;;;;;;5006434;28;20113;-86
2023/03/22 14:51:33;;;;;;;0.95;0.60;;;;;;;;;;5005798;28;20022;-86
2023/03/22 14:54:01;;;;;;;3.72;1.23;;;;;;;;;;5009752;28;20070;-85
2023/03/22 14:56:27;;;;;;;1.00;0.80;;;;;;;;;;5017830;28;20070;-83
2023/03/22 14:58:56;;;;;;;1.33;0.75;;;;;;;;;;5022345;28;20025;-84
2023/03/22 15:01:33;;;;;;;0.98;0.73;;;;;;;;;;5041937;28;20017;-83
2023/03/22 15:04:01;;;;;;;0.50;0.50;;;;;;;;;;5039367;28;20040;-86